sensor_id;sensor_type;location;lat;lon;timestamp;P1;durP1;ratioP1;P2;durP2;ratioP2
62863;SDS011;48954;59.950;11.014;2023-03-12T00:00:29;7.50;;;2.30;;
62863;SDS011;48954;59.950;11.014;2023-03-12T00:03:15;6.60;;;1.90;;
62863;SDS011;48954;59.950;11.014;2023-03-12T00:05:42;6.10;;;1.80;;
62863;SDS011;48954;59.950;11.014;2023-03-12T00:08:09;5.80;;;2.00;;
62863;SDS011;48954;59.950;11.014;2023-03-12T00:10:37;4.40;;;1.50;;
62863;SDS011;48954;59.950;11.014;2023-03-12T00:13:03;4.70;;;1.50;;
62863;SDS011;48954;59.950;11.014;2023-03-12T00:15:30;3.40;;;0.80;;
62863;SDS011;48954;59.950;11.014;2023-03-12T00:17:56;4.40;;;1.40;;
62863;SDS011;48954;59.950;11.014;2023-03-12T00:20:21;1.80;;;0.80;;
62863;SDS011;48954;59.950;11.014;2023-03-12T00:22:48;1.70;;;0.50;;
62863;SDS011;48954;59.950;11.014;2023-03-12T00:25:15;1.60;;;0.80;;
62863;SDS011;48954;59.950;11.014;2023-03-12T00:27:42;2.60;;;0.50;;
62863;SDS011;48954;59.950;11.014;2023-03-12T00:30:08;2.00;;;0.70;;
62863;SDS011;48954;59.950;11.014;2023-03-12T00:32:36;3.60;;;1.20;;
62863;SDS011;48954;59.950;11.014;2023-03-12T00:35:02;5.00;;;2.20;;
62863;SDS011;48954;59.950;11.014;2023-03-12T00:37:29;6.00;;;1.60;;
62863;SDS011;48954;59.950;11.014;2023-03-12T00:39:58;4.70;;;1.90;;
62863;SDS011;48954;59.950;11.014;2023-03-12T00:42:25;3.70;;;1.40;;
62863;SDS011;48954;59.950;11.014;2023-03-12T00:44:53;3.50;;;1.50;;
62863;SDS011;48954;59.950;11.014;2023-03-12T00:47:19;6.50;;;1.40;;
62863;SDS011;48954;59.950;11.014;2023-03-12T00:49:47;2.90;;;1.50;;
62863;SDS011;48954;59.950;11.014;2023-03-12T00:52:12;3.70;;;1.30;;
62863;SDS011;48954;59.950;11.014;2023-03-12T00:54:39;5.40;;;1.40;;
62863;SDS011;48954;59.950;11.014;2023-03-12T00:57:05;5.60;;;2.00;;
62863;SDS011;48954;59.950;11.014;2023-03-12T00:59:30;5.60;;;1.70;;
62863;SDS011;48954;59.950;11.014;2023-03-12T01:01:56;8.70;;;1.40;;
62863;SDS011;48954;59.950;11.014;2023-03-12T01:04:22;2.60;;;1.00;;
62863;SDS011;48954;59.950;11.014;2023-03-12T01:06:48;1.60;;;0.50;;
62863;SDS011;48954;59.950;11.014;2023-03-12T01:09:13;1.90;;;1.00;;
62863;SDS011;48954;59.950;11.014;2023-03-12T01:11:39;1.70;;;0.60;;
62863;SDS011;48954;59.950;11.014;2023-03-12T01:14:06;1.50;;;0.60;;
62863;SDS011;48954;59.950;11.014;2023-03-12T01:16:33;3.20;;;0.50;;
62863;SDS011;48954;59.950;11.014;2023-03-12T01:19:06;1.70;;;0.60;;
62863;SDS011;48954;59.950;11.014;2023-03-12T01:21:32;2.00;;;0.60;;
62863;SDS011;48954;59.950;11.014;2023-03-12T01:23:58;2.10;;;0.50;;
62863;SDS011;48954;59.950;11.014;2023-03-12T01:26:25;0.90;;;0.30;;
62863;SDS011;48954;59.950;11.014;2023-03-12T01:28:51;1.10;;;0.30;;
62863;SDS011;48954;59.950;11.014;2023-03-12T01:31:17;2.20;;;0.40;;
62863;SDS011;48954;59.950;11.014;2023-03-12T01:33:44;0.80;;;0.30;;
62863;SDS011;48954;59.950;11.014;2023-03-12T01:36:17;1.50;;;0.60;;
62863;SDS011;48954;59.950;11.014;2023-03-12T01:38:45;0.80;;;0.20;;
62863;SDS011;48954;59.950;11.014;2023-03-12T01:41:11;2.40;;;0.30;;
62863;SDS011;48954;59.950;11.014;2023-03-12T01:43:38;1.20;;;0.50;;
62863;SDS011;48954;59.950;11.014;2023-03-12T01:48:50;1.90;;;0.80;;
62863;SDS011;48954;59.950;11.014;2023-03-12T01:51:20;2.00;;;0.80;;
62863;SDS011;48954;59.950;11.014;2023-03-12T01:53:47;1.70;;;0.80;;
62863;SDS011;48954;59.950;11.014;2023-03-12T01:56:16;5.30;;;1.10;;
62863;SDS011;48954;59.950;11.014;2023-03-12T01:58:45;5.20;;;1.20;;
62863;SDS011;48954;59.950;11.014;2023-03-12T02:01:15;2.10;;;0.50;;
62863;SDS011;48954;59.950;11.014;2023-03-12T02:03:43;3.10;;;0.80;;
62863;SDS011;48954;59.950;11.014;2023-03-12T02:06:15;3.10;;;1.20;;
62863;SDS011;48954;59.950;11.014;2023-03-12T02:08:45;3.50;;;1.10;;
62863;SDS011;48954;59.950;11.014;2023-03-12T02:11:12;3.70;;;1.30;;
62863;SDS011;48954;59.950;11.014;2023-03-12T02:13:38;2.90;;;0.90;;
62863;SDS011;48954;59.950;11.014;2023-03-12T02:16:04;2.50;;;0.90;;
62863;SDS011;48954;59.950;11.014;2023-03-12T02:18:30;4.00;;;1.30;;
62863;SDS011;48954;59.950;11.014;2023-03-12T02:23:50;4.00;;;1.60;;
62863;SDS011;48954;59.950;11.014;2023-03-12T02:26:21;6.40;;;1.30;;
62863;SDS011;48954;59.950;11.014;2023-03-12T02:28:49;1.90;;;0.70;;
62863;SDS011;48954;59.950;11.014;2023-03-12T02:31:17;2.50;;;0.80;;
62863;SDS011;48954;59.950;11.014;2023-03-12T02:33:45;2.60;;;0.90;;
62863;SDS011;48954;59.950;11.014;2023-03-12T02:36:11;2.30;;;0.60;;
62863;SDS011;48954;59.950;11.014;2023-03-12T02:38:41;1.40;;;0.60;;
62863;SDS011;48954;59.950;11.014;2023-03-12T02:43:45;1.40;;;0.70;;
62863;SDS011;48954;59.950;11.014;2023-03-12T02:46:14;1.60;;;0.60;;
62863;SDS011;48954;59.950;11.014;2023-03-12T02:48:40;0.70;;;0.20;;
62863;SDS011;48954;59.950;11.014;2023-03-12T02:51:06;3.00;;;0.60;;
62863;SDS011;48954;59.950;11.014;2023-03-12T02:53:32;2.60;;;0.90;;
62863;SDS011;48954;59.950;11.014;2023-03-12T02:55:58;1.90;;;0.80;;
62863;SDS011;48954;59.950;11.014;2023-03-12T02:58:26;2.00;;;0.80;;
62863;SDS011;48954;59.950;11.014;2023-03-12T03:00:51;5.00;;;0.70;;
62863;SDS011;48954;59.950;11.014;2023-03-12T03:03:17;2.10;;;0.60;;
62863;SDS011;48954;59.950;11.014;2023-03-12T03:05:43;0.80;;;0.50;;
62863;SDS011;48954;59.950;11.014;2023-03-12T03:08:09;1.30;;;0.50;;
62863;SDS011;48954;59.950;11.014;2023-03-12T03:10:35;2.60;;;0.80;;
62863;SDS011;48954;59.950;11.014;2023-03-12T03:13:00;2.50;;;0.50;;
62863;SDS011;48954;59.950;11.014;2023-03-12T03:15:26;3.20;;;0.90;;
62863;SDS011;48954;59.950;11.014;2023-03-12T03:17:52;3.40;;;0.90;;
62863;SDS011;48954;59.950;11.014;2023-03-12T03:20:18;3.90;;;1.30;;
62863;SDS011;48954;59.950;11.014;2023-03-12T03:22:43;4.10;;;1.10;;
62863;SDS011;48954;59.950;11.014;2023-03-12T03:25:10;2.90;;;0.80;;
62863;SDS011;48954;59.950;11.014;2023-03-12T03:27:35;2.80;;;1.00;;
62863;SDS011;48954;59.950;11.014;2023-03-12T03:30:01;3.50;;;1.40;;
62863;SDS011;48954;59.950;11.014;2023-03-12T03:32:29;4.40;;;1.20;;
62863;SDS011;48954;59.950;11.014;2023-03-12T03:34:54;4.10;;;1.30;;
62863;SDS011;48954;59.950;11.014;2023-03-12T03:37:20;7.00;;;1.90;;
62863;SDS011;48954;59.950;11.014;2023-03-12T03:39:46;3.20;;;1.00;;
62863;SDS011;48954;59.950;11.014;2023-03-12T03:42:12;4.90;;;1.50;;
62863;SDS011;48954;59.950;11.014;2023-03-12T03:44:38;4.90;;;1.10;;
62863;SDS011;48954;59.950;11.014;2023-03-12T03:47:03;3.50;;;1.00;;
62863;SDS011;48954;59.950;11.014;2023-03-12T03:49:29;5.70;;;1.40;;
62863;SDS011;48954;59.950;11.014;2023-03-12T03:51:56;2.30;;;1.10;;
62863;SDS011;48954;59.950;11.014;2023-03-12T03:54:22;6.90;;;1.80;;
62863;SDS011;48954;59.950;11.014;2023-03-12T03:56:48;3.50;;;1.00;;
62863;SDS011;48954;59.950;11.014;2023-03-12T03:59:13;1.90;;;0.90;;
62863;SDS011;48954;59.950;11.014;2023-03-12T04:01:39;3.50;;;1.10;;
62863;SDS011;48954;59.950;11.014;2023-03-12T04:04:05;3.60;;;0.70;;
62863;SDS011;48954;59.950;11.014;2023-03-12T04:06:31;1.90;;;0.70;;
62863;SDS011;48954;59.950;11.014;2023-03-12T04:08:57;4.50;;;0.90;;
62863;SDS011;48954;59.950;11.014;2023-03-12T04:11:24;3.50;;;1.10;;
62863;SDS011;48954;59.950;11.014;2023-03-12T04:13:50;2.70;;;1.30;;
62863;SDS011;48954;59.950;11.014;2023-03-12T04:16:16;5.50;;;1.20;;
62863;SDS011;48954;59.950;11.014;2023-03-12T04:18:43;1.30;;;0.60;;
62863;SDS011;48954;59.950;11.014;2023-03-12T04:21:10;1.90;;;0.70;;
62863;SDS011;48954;59.950;11.014;2023-03-12T04:23:37;1.50;;;0.50;;
62863;SDS011;48954;59.950;11.014;2023-03-12T04:26:04;6.80;;;2.20;;
62863;SDS011;48954;59.950;11.014;2023-03-12T04:28:31;5.30;;;1.40;;
62863;SDS011;48954;59.950;11.014;2023-03-12T04:30:58;7.40;;;1.60;;
62863;SDS011;48954;59.950;11.014;2023-03-12T04:33:29;5.50;;;1.40;;
62863;SDS011;48954;59.950;11.014;2023-03-12T04:35:56;4.40;;;1.50;;
62863;SDS011;48954;59.950;11.014;2023-03-12T04:38:22;6.50;;;1.40;;
62863;SDS011;48954;59.950;11.014;2023-03-12T04:40:59;6.50;;;1.70;;
62863;SDS011;48954;59.950;11.014;2023-03-12T04:43:27;3.30;;;0.80;;
62863;SDS011;48954;59.950;11.014;2023-03-12T04:45:54;2.00;;;0.50;;
62863;SDS011;48954;59.950;11.014;2023-03-12T04:48:20;2.00;;;1.00;;
62863;SDS011;48954;59.950;11.014;2023-03-12T04:50:46;5.40;;;0.70;;
62863;SDS011;48954;59.950;11.014;2023-03-12T04:53:11;2.20;;;0.80;;
62863;SDS011;48954;59.950;11.014;2023-03-12T04:55:37;6.60;;;1.00;;
62863;SDS011;48954;59.950;11.014;2023-03-12T04:58:03;2.90;;;0.90;;
62863;SDS011;48954;59.950;11.014;2023-03-12T05:00:29;2.50;;;0.60;;
62863;SDS011;48954;59.950;11.014;2023-03-12T05:02:55;9.50;;;1.00;;
62863;SDS011;48954;59.950;11.014;2023-03-12T05:05:20;3.80;;;1.10;;
62863;SDS011;48954;59.950;11.014;2023-03-12T05:07:46;5.20;;;1.20;;
62863;SDS011;48954;59.950;11.014;2023-03-12T05:10:12;2.60;;;0.90;;
62863;SDS011;48954;59.950;11.014;2023-03-12T05:12:38;3.50;;;1.30;;
62863;SDS011;48954;59.950;11.014;2023-03-12T05:15:04;4.50;;;0.90;;
62863;SDS011;48954;59.950;11.014;2023-03-12T05:17:30;3.60;;;0.90;;
62863;SDS011;48954;59.950;11.014;2023-03-12T05:19:55;9.70;;;1.50;;
62863;SDS011;48954;59.950;11.014;2023-03-12T05:22:21;3.20;;;1.20;;
62863;SDS011;48954;59.950;11.014;2023-03-12T05:24:47;3.40;;;1.00;;
62863;SDS011;48954;59.950;11.014;2023-03-12T05:27:13;3.50;;;1.30;;
62863;SDS011;48954;59.950;11.014;2023-03-12T05:29:38;2.90;;;1.00;;
62863;SDS011;48954;59.950;11.014;2023-03-12T05:32:05;3.60;;;1.10;;
62863;SDS011;48954;59.950;11.014;2023-03-12T05:34:31;8.90;;;1.10;;
62863;SDS011;48954;59.950;11.014;2023-03-12T05:36:56;3.30;;;1.00;;
62863;SDS011;48954;59.950;11.014;2023-03-12T05:39:23;3.80;;;1.40;;
62863;SDS011;48954;59.950;11.014;2023-03-12T05:41:49;2.40;;;1.00;;
62863;SDS011;48954;59.950;11.014;2023-03-12T05:44:15;4.20;;;1.00;;
62863;SDS011;48954;59.950;11.014;2023-03-12T05:46:41;5.00;;;1.20;;
62863;SDS011;48954;59.950;11.014;2023-03-12T05:49:08;4.10;;;1.50;;
62863;SDS011;48954;59.950;11.014;2023-03-12T05:51:34;4.00;;;1.20;;
62863;SDS011;48954;59.950;11.014;2023-03-12T05:54:00;2.20;;;0.80;;
62863;SDS011;48954;59.950;11.014;2023-03-12T05:56:27;6.10;;;1.80;;
62863;SDS011;48954;59.950;11.014;2023-03-12T05:58:53;6.40;;;2.40;;
62863;SDS011;48954;59.950;11.014;2023-03-12T06:01:20;5.70;;;2.10;;
62863;SDS011;48954;59.950;11.014;2023-03-12T06:03:51;8.40;;;2.70;;
62863;SDS011;48954;59.950;11.014;2023-03-12T06:06:16;4.10;;;1.80;;
62863;SDS011;48954;59.950;11.014;2023-03-12T06:08:43;4.60;;;1.50;;
62863;SDS011;48954;59.950;11.014;2023-03-12T06:11:10;5.70;;;2.20;;
62863;SDS011;48954;59.950;11.014;2023-03-12T06:13:36;4.20;;;1.80;;
62863;SDS011;48954;59.950;11.014;2023-03-12T06:16:06;4.60;;;1.80;;
62863;SDS011;48954;59.950;11.014;2023-03-12T06:18:35;3.40;;;0.90;;
62863;SDS011;48954;59.950;11.014;2023-03-12T06:21:09;2.20;;;0.80;;
62863;SDS011;48954;59.950;11.014;2023-03-12T06:23:40;4.00;;;0.90;;
62863;SDS011;48954;59.950;11.014;2023-03-12T06:26:09;4.30;;;1.10;;
62863;SDS011;48954;59.950;11.014;2023-03-12T06:28:35;2.00;;;0.90;;
62863;SDS011;48954;59.950;11.014;2023-03-12T06:31:02;1.50;;;0.70;;
62863;SDS011;48954;59.950;11.014;2023-03-12T06:33:28;2.90;;;1.00;;
62863;SDS011;48954;59.950;11.014;2023-03-12T06:35:55;1.40;;;0.70;;
62863;SDS011;48954;59.950;11.014;2023-03-12T06:38:22;3.70;;;1.10;;
62863;SDS011;48954;59.950;11.014;2023-03-12T06:40:56;3.50;;;0.80;;
62863;SDS011;48954;59.950;11.014;2023-03-12T06:43:23;5.80;;;1.00;;
62863;SDS011;48954;59.950;11.014;2023-03-12T06:45:50;2.20;;;1.10;;
62863;SDS011;48954;59.950;11.014;2023-03-12T06:48:16;0.60;;;0.30;;
62863;SDS011;48954;59.950;11.014;2023-03-12T06:50:42;1.40;;;0.60;;
62863;SDS011;48954;59.950;11.014;2023-03-12T06:53:08;6.10;;;2.30;;
62863;SDS011;48954;59.950;11.014;2023-03-12T06:55:34;6.70;;;2.40;;
62863;SDS011;48954;59.950;11.014;2023-03-12T06:57:59;6.00;;;2.30;;
62863;SDS011;48954;59.950;11.014;2023-03-12T07:00:25;8.60;;;3.50;;
62863;SDS011;48954;59.950;11.014;2023-03-12T07:02:51;6.80;;;2.80;;
62863;SDS011;48954;59.950;11.014;2023-03-12T07:05:17;7.50;;;1.90;;
62863;SDS011;48954;59.950;11.014;2023-03-12T07:07:43;4.30;;;1.40;;
62863;SDS011;48954;59.950;11.014;2023-03-12T07:10:10;7.90;;;2.20;;
62863;SDS011;48954;59.950;11.014;2023-03-12T07:12:36;9.50;;;2.70;;
62863;SDS011;48954;59.950;11.014;2023-03-12T07:15:03;10.00;;;3.80;;
62863;SDS011;48954;59.950;11.014;2023-03-12T07:17:53;7.80;;;2.70;;
62863;SDS011;48954;59.950;11.014;2023-03-12T07:20:19;7.80;;;3.30;;
62863;SDS011;48954;59.950;11.014;2023-03-12T07:22:45;4.60;;;2.20;;
62863;SDS011;48954;59.950;11.014;2023-03-12T07:25:11;6.50;;;2.60;;
62863;SDS011;48954;59.950;11.014;2023-03-12T07:27:37;5.80;;;2.30;;
62863;SDS011;48954;59.950;11.014;2023-03-12T07:30:03;6.10;;;2.40;;
62863;SDS011;48954;59.950;11.014;2023-03-12T07:32:29;5.60;;;2.40;;
62863;SDS011;48954;59.950;11.014;2023-03-12T07:34:56;5.40;;;2.60;;
62863;SDS011;48954;59.950;11.014;2023-03-12T07:37:22;4.30;;;2.20;;
62863;SDS011;48954;59.950;11.014;2023-03-12T07:39:47;5.20;;;1.90;;
62863;SDS011;48954;59.950;11.014;2023-03-12T07:42:13;6.10;;;3.20;;
62863;SDS011;48954;59.950;11.014;2023-03-12T07:44:39;3.70;;;2.10;;
62863;SDS011;48954;59.950;11.014;2023-03-12T07:47:05;4.90;;;1.90;;
62863;SDS011;48954;59.950;11.014;2023-03-12T07:49:31;4.90;;;1.90;;
62863;SDS011;48954;59.950;11.014;2023-03-12T07:51:58;5.70;;;2.30;;
62863;SDS011;48954;59.950;11.014;2023-03-12T07:54:42;7.60;;;2.50;;
62863;SDS011;48954;59.950;11.014;2023-03-12T07:57:11;3.50;;;1.50;;
62863;SDS011;48954;59.950;11.014;2023-03-12T07:59:38;3.60;;;1.00;;
62863;SDS011;48954;59.950;11.014;2023-03-12T08:02:04;3.80;;;1.20;;
62863;SDS011;48954;59.950;11.014;2023-03-12T08:04:30;3.30;;;1.50;;
62863;SDS011;48954;59.950;11.014;2023-03-12T08:06:56;3.60;;;1.20;;
62863;SDS011;48954;59.950;11.014;2023-03-12T08:09:22;4.50;;;1.20;;
62863;SDS011;48954;59.950;11.014;2023-03-12T08:11:48;1.90;;;0.80;;
62863;SDS011;48954;59.950;11.014;2023-03-12T08:14:13;3.20;;;1.20;;
62863;SDS011;48954;59.950;11.014;2023-03-12T08:16:39;6.50;;;1.90;;
62863;SDS011;48954;59.950;11.014;2023-03-12T08:19:05;9.50;;;2.80;;
62863;SDS011;48954;59.950;11.014;2023-03-12T08:21:32;5.40;;;2.30;;
62863;SDS011;48954;59.950;11.014;2023-03-12T08:23:58;3.80;;;1.50;;
62863;SDS011;48954;59.950;11.014;2023-03-12T08:26:28;3.30;;;1.40;;
62863;SDS011;48954;59.950;11.014;2023-03-12T08:28:54;3.80;;;1.30;;
62863;SDS011;48954;59.950;11.014;2023-03-12T08:31:22;2.90;;;1.30;;
62863;SDS011;48954;59.950;11.014;2023-03-12T08:33:49;3.90;;;1.60;;
62863;SDS011;48954;59.950;11.014;2023-03-12T08:36:14;4.60;;;1.40;;
62863;SDS011;48954;59.950;11.014;2023-03-12T08:38:41;3.40;;;1.40;;
62863;SDS011;48954;59.950;11.014;2023-03-12T08:41:08;3.70;;;1.60;;
62863;SDS011;48954;59.950;11.014;2023-03-12T08:43:34;3.40;;;1.30;;
62863;SDS011;48954;59.950;11.014;2023-03-12T08:46:01;2.10;;;0.70;;
62863;SDS011;48954;59.950;11.014;2023-03-12T08:48:29;2.90;;;0.80;;
62863;SDS011;48954;59.950;11.014;2023-03-12T08:50:58;2.70;;;1.10;;
62863;SDS011;48954;59.950;11.014;2023-03-12T08:53:26;2.50;;;1.00;;
62863;SDS011;48954;59.950;11.014;2023-03-12T08:56:08;6.40;;;1.10;;
62863;SDS011;48954;59.950;11.014;2023-03-12T08:58:36;4.30;;;1.20;;
62863;SDS011;48954;59.950;11.014;2023-03-12T09:01:08;3.50;;;1.20;;
62863;SDS011;48954;59.950;11.014;2023-03-12T09:03:55;3.80;;;1.30;;
62863;SDS011;48954;59.950;11.014;2023-03-12T09:06:21;5.10;;;1.30;;
62863;SDS011;48954;59.950;11.014;2023-03-12T09:08:49;3.20;;;1.30;;
62863;SDS011;48954;59.950;11.014;2023-03-12T09:11:16;3.00;;;1.10;;
62863;SDS011;48954;59.950;11.014;2023-03-12T09:13:42;2.60;;;1.10;;
62863;SDS011;48954;59.950;11.014;2023-03-12T09:16:09;3.30;;;1.10;;
62863;SDS011;48954;59.950;11.014;2023-03-12T09:18:36;3.80;;;0.80;;
62863;SDS011;48954;59.950;11.014;2023-03-12T09:21:02;2.20;;;1.20;;
62863;SDS011;48954;59.950;11.014;2023-03-12T09:23:38;4.30;;;1.30;;
62863;SDS011;48954;59.950;11.014;2023-03-12T09:26:04;2.60;;;1.10;;
62863;SDS011;48954;59.950;11.014;2023-03-12T09:29:16;2.90;;;1.00;;
62863;SDS011;48954;59.950;11.014;2023-03-12T09:31:42;5.70;;;2.50;;
62863;SDS011;48954;59.950;11.014;2023-03-12T09:34:13;3.20;;;1.00;;
62863;SDS011;48954;59.950;11.014;2023-03-12T09:36:39;3.00;;;1.50;;
62863;SDS011;48954;59.950;11.014;2023-03-12T09:39:11;3.10;;;1.20;;
62863;SDS011;48954;59.950;11.014;2023-03-12T09:42:41;3.50;;;1.20;;
62863;SDS011;48954;59.950;11.014;2023-03-12T11:31:44;1.60;;;0.60;;
62863;SDS011;48954;59.950;11.014;2023-03-12T11:34:24;1.10;;;0.40;;
62863;SDS011;48954;59.950;11.014;2023-03-12T11:48:33;3.90;;;0.80;;
62863;SDS011;48954;59.950;11.014;2023-03-12T12:30:05;6.30;;;0.70;;
62863;SDS011;48954;59.950;11.014;2023-03-12T12:42:41;1.80;;;0.60;;
62863;SDS011;48954;59.950;11.014;2023-03-12T12:45:44;3.00;;;0.90;;
62863;SDS011;48954;59.950;11.014;2023-03-12T13:03:18;7.80;;;1.30;;
62863;SDS011;48954;59.950;11.014;2023-03-12T13:09:12;2.90;;;1.00;;
62863;SDS011;48954;59.950;11.014;2023-03-12T13:21:39;4.50;;;0.70;;
62863;SDS011;48954;59.950;11.014;2023-03-12T13:24:25;2.30;;;0.80;;
62863;SDS011;48954;59.950;11.014;2023-03-12T13:27:21;4.60;;;0.90;;
62863;SDS011;48954;59.950;11.014;2023-03-12T13:35:40;6.10;;;1.00;;
62863;SDS011;48954;59.950;11.014;2023-03-12T13:41:32;1.90;;;1.10;;
62863;SDS011;48954;59.950;11.014;2023-03-12T13:50:14;2.90;;;0.90;;
62863;SDS011;48954;59.950;11.014;2023-03-12T13:52:46;4.30;;;1.20;;
62863;SDS011;48954;59.950;11.014;2023-03-12T13:55:30;3.50;;;1.70;;
62863;SDS011;48954;59.950;11.014;2023-03-12T13:58:07;3.80;;;1.00;;
62863;SDS011;48954;59.950;11.014;2023-03-12T14:00:39;4.80;;;1.30;;
62863;SDS011;48954;59.950;11.014;2023-03-12T14:03:38;2.80;;;1.00;;
62863;SDS011;48954;59.950;11.014;2023-03-12T14:06:21;5.30;;;0.90;;
62863;SDS011;48954;59.950;11.014;2023-03-12T14:08:56;4.40;;;1.80;;
62863;SDS011;48954;59.950;11.014;2023-03-12T14:15:03;3.80;;;0.90;;
62863;SDS011;48954;59.950;11.014;2023-03-12T14:17:42;4.80;;;0.90;;
62863;SDS011;48954;59.950;11.014;2023-03-12T14:20:20;3.40;;;0.70;;
62863;SDS011;48954;59.950;11.014;2023-03-12T14:22:49;2.40;;;1.10;;
62863;SDS011;48954;59.950;11.014;2023-03-12T14:28:01;3.90;;;1.00;;
62863;SDS011;48954;59.950;11.014;2023-03-12T14:33:50;3.30;;;1.50;;
62863;SDS011;48954;59.950;11.014;2023-03-12T14:36:51;2.20;;;0.70;;
62863;SDS011;48954;59.950;11.014;2023-03-12T14:39:27;3.30;;;1.20;;
62863;SDS011;48954;59.950;11.014;2023-03-12T14:42:05;2.70;;;1.00;;
62863;SDS011;48954;59.950;11.014;2023-03-12T14:44:33;5.20;;;1.00;;
62863;SDS011;48954;59.950;11.014;2023-03-12T14:47:05;9.30;;;1.20;;
62863;SDS011;48954;59.950;11.014;2023-03-12T14:49:41;1.50;;;0.60;;
62863;SDS011;48954;59.950;11.014;2023-03-12T14:52:13;6.40;;;2.10;;
62863;SDS011;48954;59.950;11.014;2023-03-12T14:54:51;2.90;;;1.10;;
62863;SDS011;48954;59.950;11.014;2023-03-12T14:57:25;2.60;;;0.90;;
62863;SDS011;48954;59.950;11.014;2023-03-12T14:59:53;3.00;;;1.00;;
62863;SDS011;48954;59.950;11.014;2023-03-12T15:02:21;5.80;;;1.50;;
62863;SDS011;48954;59.950;11.014;2023-03-12T15:04:49;5.50;;;1.00;;
62863;SDS011;48954;59.950;11.014;2023-03-12T15:07:19;3.40;;;0.80;;
62863;SDS011;48954;59.950;11.014;2023-03-12T15:09:50;2.30;;;1.20;;
62863;SDS011;48954;59.950;11.014;2023-03-12T15:12:23;3.60;;;1.60;;
62863;SDS011;48954;59.950;11.014;2023-03-12T15:15:05;4.10;;;1.60;;
62863;SDS011;48954;59.950;11.014;2023-03-12T15:17:33;4.20;;;1.40;;
62863;SDS011;48954;59.950;11.014;2023-03-12T15:20:05;5.60;;;2.00;;
62863;SDS011;48954;59.950;11.014;2023-03-12T15:22:32;5.40;;;2.20;;
62863;SDS011;48954;59.950;11.014;2023-03-12T15:25:14;6.10;;;2.50;;
62863;SDS011;48954;59.950;11.014;2023-03-12T15:30:36;7.50;;;2.80;;
62863;SDS011;48954;59.950;11.014;2023-03-12T15:35:32;5.40;;;1.70;;
62863;SDS011;48954;59.950;11.014;2023-03-12T15:38:00;4.90;;;1.60;;
62863;SDS011;48954;59.950;11.014;2023-03-12T15:40:31;4.00;;;1.60;;
62863;SDS011;48954;59.950;11.014;2023-03-12T15:42:58;4.60;;;1.90;;
62863;SDS011;48954;59.950;11.014;2023-03-12T15:45:28;2.50;;;1.10;;
62863;SDS011;48954;59.950;11.014;2023-03-12T15:48:23;4.60;;;1.90;;
62863;SDS011;48954;59.950;11.014;2023-03-12T15:50:55;5.60;;;2.30;;
62863;SDS011;48954;59.950;11.014;2023-03-12T15:53:30;6.60;;;2.10;;
62863;SDS011;48954;59.950;11.014;2023-03-12T15:56:24;6.30;;;2.00;;
62863;SDS011;48954;59.950;11.014;2023-03-12T15:58:58;9.00;;;2.00;;
62863;SDS011;48954;59.950;11.014;2023-03-12T16:01:42;7.50;;;1.90;;
62863;SDS011;48954;59.950;11.014;2023-03-12T16:04:38;5.30;;;1.70;;
62863;SDS011;48954;59.950;11.014;2023-03-12T16:07:08;14.50;;;2.10;;
62863;SDS011;48954;59.950;11.014;2023-03-12T16:09:40;8.40;;;2.60;;
62863;SDS011;48954;59.950;11.014;2023-03-12T16:12:14;7.80;;;2.70;;
62863;SDS011;48954;59.950;11.014;2023-03-12T16:14:40;6.90;;;3.50;;
62863;SDS011;48954;59.950;11.014;2023-03-12T16:17:12;13.00;;;3.90;;
62863;SDS011;48954;59.950;11.014;2023-03-12T16:19:44;10.30;;;4.40;;
62863;SDS011;48954;59.950;11.014;2023-03-12T16:22:10;5.40;;;1.70;;
62863;SDS011;48954;59.950;11.014;2023-03-12T16:24:43;13.00;;;2.50;;
62863;SDS011;48954;59.950;11.014;2023-03-12T16:27:23;6.30;;;2.70;;
62863;SDS011;48954;59.950;11.014;2023-03-12T16:29:50;6.40;;;3.10;;
62863;SDS011;48954;59.950;11.014;2023-03-12T16:32:17;17.90;;;3.70;;
62863;SDS011;48954;59.950;11.014;2023-03-12T16:37:22;18.90;;;5.10;;
62863;SDS011;48954;59.950;11.014;2023-03-12T16:39:48;8.70;;;2.60;;
62863;SDS011;48954;59.950;11.014;2023-03-12T16:42:17;10.50;;;3.50;;
62863;SDS011;48954;59.950;11.014;2023-03-12T16:44:44;11.90;;;4.10;;
62863;SDS011;48954;59.950;11.014;2023-03-12T16:47:13;14.80;;;5.20;;
62863;SDS011;48954;59.950;11.014;2023-03-12T16:49:40;18.40;;;5.90;;
62863;SDS011;48954;59.950;11.014;2023-03-12T16:52:18;31.00;;;8.20;;
62863;SDS011;48954;59.950;11.014;2023-03-12T16:54:47;34.30;;;10.60;;
62863;SDS011;48954;59.950;11.014;2023-03-12T16:57:36;27.40;;;8.60;;
62863;SDS011;48954;59.950;11.014;2023-03-12T17:00:05;24.00;;;7.10;;
62863;SDS011;48954;59.950;11.014;2023-03-12T17:02:37;24.50;;;7.40;;
62863;SDS011;48954;59.950;11.014;2023-03-12T17:05:04;11.10;;;4.20;;
62863;SDS011;48954;59.950;11.014;2023-03-12T17:07:30;11.60;;;4.00;;
62863;SDS011;48954;59.950;11.014;2023-03-12T17:09:55;14.40;;;5.50;;
62863;SDS011;48954;59.950;11.014;2023-03-12T17:12:30;21.80;;;6.70;;
62863;SDS011;48954;59.950;11.014;2023-03-12T17:14:58;19.50;;;5.90;;
62863;SDS011;48954;59.950;11.014;2023-03-12T17:17:28;13.00;;;4.90;;
62863;SDS011;48954;59.950;11.014;2023-03-12T17:19:55;8.90;;;4.10;;
62863;SDS011;48954;59.950;11.014;2023-03-12T17:22:21;8.80;;;4.10;;
62863;SDS011;48954;59.950;11.014;2023-03-12T17:24:47;11.40;;;5.00;;
62863;SDS011;48954;59.950;11.014;2023-03-12T17:27:13;12.40;;;4.90;;
62863;SDS011;48954;59.950;11.014;2023-03-12T17:29:39;14.70;;;5.60;;
62863;SDS011;48954;59.950;11.014;2023-03-12T17:32:05;12.70;;;4.60;;
62863;SDS011;48954;59.950;11.014;2023-03-12T17:34:31;14.20;;;6.00;;
62863;SDS011;48954;59.950;11.014;2023-03-12T17:37:00;10.20;;;4.70;;
62863;SDS011;48954;59.950;11.014;2023-03-12T17:39:26;19.40;;;6.60;;
62863;SDS011;48954;59.950;11.014;2023-03-12T17:41:54;8.70;;;4.30;;
62863;SDS011;48954;59.950;11.014;2023-03-12T17:44:23;8.00;;;3.30;;
62863;SDS011;48954;59.950;11.014;2023-03-12T17:46:50;7.50;;;3.50;;
62863;SDS011;48954;59.950;11.014;2023-03-12T17:49:16;12.40;;;4.30;;
62863;SDS011;48954;59.950;11.014;2023-03-12T17:51:41;11.90;;;5.10;;
62863;SDS011;48954;59.950;11.014;2023-03-12T17:54:10;9.70;;;3.40;;
62863;SDS011;48954;59.950;11.014;2023-03-12T17:56:36;8.90;;;3.90;;
62863;SDS011;48954;59.950;11.014;2023-03-12T17:59:02;7.60;;;4.00;;
62863;SDS011;48954;59.950;11.014;2023-03-12T18:01:28;8.60;;;3.70;;
62863;SDS011;48954;59.950;11.014;2023-03-12T18:03:54;10.20;;;4.40;;
62863;SDS011;48954;59.950;11.014;2023-03-12T18:06:20;11.10;;;5.10;;
62863;SDS011;48954;59.950;11.014;2023-03-12T18:08:46;9.30;;;5.20;;
62863;SDS011;48954;59.950;11.014;2023-03-12T18:11:12;16.30;;;8.20;;
62863;SDS011;48954;59.950;11.014;2023-03-12T18:13:38;14.70;;;6.60;;
62863;SDS011;48954;59.950;11.014;2023-03-12T18:16:05;18.20;;;7.40;;
62863;SDS011;48954;59.950;11.014;2023-03-12T18:18:34;10.30;;;4.80;;
62863;SDS011;48954;59.950;11.014;2023-03-12T18:21:00;21.20;;;6.90;;
62863;SDS011;48954;59.950;11.014;2023-03-12T18:23:28;16.10;;;7.50;;
62863;SDS011;48954;59.950;11.014;2023-03-12T18:25:55;19.70;;;8.80;;
62863;SDS011;48954;59.950;11.014;2023-03-12T18:28:21;23.50;;;11.00;;
62863;SDS011;48954;59.950;11.014;2023-03-12T18:30:52;17.50;;;7.00;;
62863;SDS011;48954;59.950;11.014;2023-03-12T18:33:18;25.60;;;9.70;;
62863;SDS011;48954;59.950;11.014;2023-03-12T18:35:44;23.70;;;8.10;;
62863;SDS011;48954;59.950;11.014;2023-03-12T18:38:11;10.10;;;4.50;;
62863;SDS011;48954;59.950;11.014;2023-03-12T18:40:37;11.80;;;4.20;;